createdAt,value
2022-12-06T00:01:12.196Z,37.50
2022-12-06T00:03:39.921Z,38.35
2022-12-06T00:06:09.584Z,28.15
2022-12-06T00:08:37.516Z,29.85
2022-12-06T00:11:18.692Z,30.30
2022-12-06T00:13:46.291Z,29.70
2022-12-06T00:16:15.190Z,29.67
2022-12-06T00:18:43.290Z,37.42
2022-12-06T00:21:11.181Z,32.08
2022-12-06T00:23:38.917Z,33.83
2022-12-06T00:26:07.151Z,34.92
2022-12-06T00:28:34.930Z,32.67
2022-12-06T00:31:03.561Z,40.45
2022-12-06T00:33:30.611Z,31.10
2022-12-06T00:35:59.136Z,32.92
2022-12-06T00:38:26.886Z,30.13
2022-12-06T00:41:01.115Z,29.92
2022-12-06T00:43:28.058Z,27.38
2022-12-06T00:45:55.633Z,32.35
2022-12-06T00:48:23.108Z,27.42
2022-12-06T00:50:49.754Z,28.73
2022-12-06T00:53:16.914Z,33.88
2022-12-06T00:55:44.653Z,26.90
2022-12-06T00:58:12.210Z,30.25
2022-12-06T01:00:39.254Z,25.88
2022-12-06T01:03:06.658Z,29.42
2022-12-06T01:05:33.950Z,29.95
2022-12-06T01:08:00.678Z,32.10
2022-12-06T01:10:27.396Z,28.73
2022-12-06T01:12:54.024Z,32.10
2022-12-06T01:15:20.722Z,27.65
2022-12-06T01:17:47.468Z,29.40
2022-12-06T01:20:14.315Z,30.02
2022-12-06T01:22:40.903Z,32.95
2022-12-06T01:25:07.922Z,29.98
2022-12-06T01:27:34.658Z,30.98
2022-12-06T01:30:01.589Z,27.58
2022-12-06T01:32:30.132Z,27.17
2022-12-06T01:34:57.136Z,29.02
2022-12-06T01:37:23.812Z,31.48
2022-12-06T01:39:50.519Z,28.52
2022-12-06T01:42:17.446Z,30.50
2022-12-06T01:44:53.223Z,24.25
2022-12-06T01:47:22.571Z,29.33
2022-12-06T01:50:07.352Z,27.52
2022-12-06T01:52:51.548Z,30.20
2022-12-06T01:55:21.840Z,30.90
2022-12-06T01:57:51.777Z,35.08
2022-12-06T02:00:18.919Z,30.98
2022-12-06T02:02:46.117Z,33.75
2022-12-06T02:05:14.564Z,32.80
2022-12-06T02:07:43.092Z,31.38
2022-12-06T02:10:10.170Z,28.48
2022-12-06T02:12:36.871Z,38.05
2022-12-06T02:15:03.828Z,32.88
2022-12-06T02:17:50.517Z,34.92
2022-12-06T02:20:33.264Z,29.13
2022-12-06T02:23:39.225Z,34.35
2022-12-06T02:26:17.727Z,29.30
2022-12-06T02:28:53.454Z,33.30
2022-12-06T02:31:28.897Z,29.27
2022-12-06T02:34:18.165Z,36.70
2022-12-06T02:36:51.278Z,35.55
2022-12-06T02:39:26.814Z,35.75
2022-12-06T02:42:06.847Z,35.13
2022-12-06T02:44:48.406Z,34.22
2022-12-06T02:47:18.840Z,34.97
2022-12-06T02:49:50.213Z,35.90
2022-12-06T02:52:20.433Z,35.83
2022-12-06T02:54:48.620Z,31.50
2022-12-06T02:57:15.252Z,32.97
2022-12-06T02:59:53.027Z,33.65
2022-12-06T03:02:21.676Z,34.47
2022-12-06T03:05:08.380Z,36.78
2022-12-06T03:07:43.417Z,33.85
2022-12-06T03:10:36.153Z,44.50
2022-12-06T03:15:45.678Z,34.72
2022-12-06T03:18:21.770Z,34.45
2022-12-06T03:21:11.405Z,36.58
2022-12-06T03:23:42.417Z,35.85
2022-12-06T03:26:13.720Z,44.35
2022-12-06T03:28:43.461Z,39.70
2022-12-06T03:31:13.276Z,31.00
2022-12-06T03:33:50.979Z,39.83
2022-12-06T03:36:18.995Z,39.42
2022-12-06T03:39:00.245Z,42.35
2022-12-06T03:41:31.226Z,47.67
2022-12-06T03:43:59.289Z,45.70
2022-12-06T03:46:37.579Z,50.15
2022-12-06T03:49:14.461Z,41.78
2022-12-06T03:51:43.405Z,46.40
2022-12-06T03:54:10.577Z,45.95
2022-12-06T03:56:38.605Z,36.83
2022-12-06T03:59:10.670Z,41.42
2022-12-06T04:01:38.328Z,38.65
2022-12-06T04:04:05.728Z,46.20
2022-12-06T04:06:33.057Z,43.97
2022-12-06T04:09:18.476Z,38.60
2022-12-06T04:11:45.444Z,40.88
2022-12-06T04:14:12.165Z,37.63
2022-12-06T04:16:57.708Z,35.20
2022-12-06T04:19:25.565Z,43.55
2022-12-06T04:22:10.882Z,38.78
2022-12-06T04:24:37.577Z,38.38
2022-12-06T04:27:22.863Z,41.67
2022-12-06T04:30:08.026Z,35.65
2022-12-06T04:32:55.190Z,41.67
2022-12-06T04:35:40.640Z,35.00
2022-12-06T04:38:26.209Z,39.85
2022-12-06T04:40:52.815Z,39.78
2022-12-06T04:43:38.118Z,43.63
2022-12-06T04:46:04.790Z,35.75
2022-12-06T04:48:31.574Z,37.22
2022-12-06T04:50:58.238Z,44.20
2022-12-06T04:53:24.889Z,44.63
2022-12-06T04:55:52.860Z,43.75
2022-12-06T04:58:20.045Z,44.60
2022-12-06T05:00:50.253Z,44.88
2022-12-06T05:03:17.335Z,42.05
2022-12-06T05:05:44.059Z,44.45
2022-12-06T05:08:10.890Z,43.10
2022-12-06T05:10:38.364Z,32.40
2022-12-06T05:13:05.648Z,36.58
2022-12-06T05:15:33.230Z,40.40
2022-12-06T05:18:00.024Z,34.67
2022-12-06T05:20:27.508Z,38.63
2022-12-06T05:22:54.200Z,43.00
2022-12-06T05:25:20.944Z,34.38
2022-12-06T05:27:48.012Z,32.85
2022-12-06T05:30:15.076Z,40.95
2022-12-06T05:32:41.664Z,35.80
2022-12-06T05:35:08.822Z,36.92
2022-12-06T05:37:35.622Z,44.45
2022-12-06T05:40:02.911Z,32.42
2022-12-06T05:42:30.026Z,31.88
2022-12-06T05:44:57.004Z,35.03
2022-12-06T05:47:23.627Z,45.33
2022-12-06T05:49:51.254Z,36.13
2022-12-06T05:52:17.987Z,35.80
2022-12-06T05:54:44.569Z,42.13
2022-12-06T05:57:11.231Z,41.60
2022-12-06T05:59:37.885Z,43.05
2022-12-06T06:02:04.704Z,40.40
2022-12-06T06:04:31.608Z,45.17
2022-12-06T06:06:58.230Z,31.63
2022-12-06T06:09:27.504Z,44.40
2022-12-06T06:11:55.204Z,40.05
2022-12-06T06:14:21.980Z,34.35
2022-12-06T06:16:48.887Z,36.42
2022-12-06T06:19:15.603Z,41.30
2022-12-06T06:21:42.387Z,44.92
2022-12-06T06:24:09.275Z,42.17
2022-12-06T06:26:36.223Z,43.78
2022-12-06T06:29:02.867Z,35.03
2022-12-06T06:31:29.732Z,40.88
2022-12-06T06:33:56.421Z,40.92
2022-12-06T06:36:23.184Z,35.03
2022-12-06T06:38:49.819Z,46.13
2022-12-06T06:41:16.527Z,57.53
2022-12-06T06:43:43.361Z,74.78
2022-12-06T06:46:10.292Z,64.10
2022-12-06T06:48:39.046Z,49.20
2022-12-06T06:51:11.845Z,39.92
2022-12-06T06:53:39.996Z,44.33
2022-12-06T06:56:07.340Z,49.83
2022-12-06T06:58:34.070Z,44.30
2022-12-06T07:01:02.338Z,43.92
2022-12-06T07:03:29.655Z,36.25
2022-12-06T07:06:02.478Z,36.03
2022-12-06T07:08:31.432Z,28.60
2022-12-06T07:10:58.977Z,54.97
2022-12-06T07:13:27.522Z,49.50
2022-12-06T07:15:54.315Z,39.28
2022-12-06T07:18:21.451Z,47.45
2022-12-06T07:20:48.957Z,41.13
2022-12-06T07:23:16.569Z,35.50
2022-12-06T07:25:43.344Z,37.50
2022-12-06T07:28:10.112Z,34.13
2022-12-06T07:30:36.818Z,29.60
2022-12-06T07:33:03.614Z,26.85
2022-12-06T07:38:18.984Z,24.83
2022-12-06T07:41:04.176Z,28.85
2022-12-06T07:43:50.141Z,42.30
2022-12-06T07:46:16.787Z,46.80
2022-12-06T07:48:43.332Z,30.23
2022-12-06T07:51:09.968Z,31.23
2022-12-06T07:53:36.621Z,32.55
2022-12-06T07:56:08.541Z,28.20
2022-12-06T07:58:35.286Z,28.05
2022-12-06T08:01:04.598Z,26.95
2022-12-06T08:03:31.489Z,31.40
2022-12-06T08:05:58.174Z,30.27
2022-12-06T08:08:28.567Z,32.92
2022-12-06T08:10:59.183Z,45.25
2022-12-06T08:13:25.766Z,35.92
2022-12-06T08:15:52.675Z,40.83
2022-12-06T08:18:19.308Z,22.08
2022-12-06T08:20:46.237Z,28.23
2022-12-06T08:23:12.932Z,31.25
2022-12-06T08:25:39.671Z,36.50
2022-12-06T08:28:06.494Z,28.35
2022-12-06T08:30:33.831Z,27.38
2022-12-06T08:33:00.560Z,20.15
2022-12-06T08:35:27.191Z,21.88
2022-12-06T08:37:54.117Z,25.08
2022-12-06T08:40:21.211Z,28.08
2022-12-06T08:42:47.823Z,22.02
2022-12-06T08:45:14.638Z,20.45
2022-12-06T08:47:41.293Z,28.05
2022-12-06T08:50:08.334Z,17.65
2022-12-06T08:52:35.000Z,20.33
2022-12-06T08:55:01.650Z,20.80
2022-12-06T08:57:28.248Z,17.42
2022-12-06T08:59:55.601Z,15.63
2022-12-06T09:02:22.356Z,17.42
2022-12-06T09:04:51.998Z,16.10
2022-12-06T09:07:19.413Z,13.50
2022-12-06T09:09:49.138Z,19.35
2022-12-06T09:12:16.109Z,17.02
2022-12-06T09:14:42.861Z,16.17
2022-12-06T09:17:09.673Z,18.90
2022-12-06T09:19:36.709Z,21.33
2022-12-06T09:22:03.481Z,19.08
2022-12-06T09:24:30.099Z,20.38
2022-12-06T09:26:56.668Z,21.50
2022-12-06T09:29:23.313Z,15.68
2022-12-06T09:31:50.291Z,16.25
2022-12-06T09:34:17.405Z,21.95
2022-12-06T09:36:51.402Z,26.63
2022-12-06T09:39:23.449Z,17.10
2022-12-06T09:42:08.558Z,15.98
2022-12-06T09:44:44.188Z,16.85
2022-12-06T09:47:13.928Z,26.75
2022-12-06T09:50:11.224Z,20.85
2022-12-06T09:52:58.971Z,18.30
2022-12-06T09:55:25.607Z,21.10
2022-12-06T09:58:10.583Z,21.38
2022-12-06T10:01:04.459Z,52.50
2022-12-06T10:04:03.939Z,24.73
2022-12-06T10:06:40.002Z,26.52
2022-12-06T10:09:09.675Z,19.92
2022-12-06T10:11:58.181Z,21.55
2022-12-06T10:14:53.787Z,21.42
2022-12-06T10:18:02.814Z,23.25
2022-12-06T10:20:41.720Z,21.30
2022-12-06T10:24:01.693Z,17.58
2022-12-06T10:26:44.999Z,16.90
2022-12-06T10:29:29.421Z,21.30
2022-12-06T10:32:04.985Z,15.18
2022-12-06T10:34:58.060Z,21.42
2022-12-06T10:37:55.727Z,17.88
2022-12-06T10:40:34.829Z,16.30
2022-12-06T10:43:11.930Z,17.10
2022-12-06T10:46:08.883Z,23.88
2022-12-06T10:48:57.200Z,17.45
2022-12-06T10:51:31.476Z,16.90
2022-12-06T10:54:04.810Z,15.95
2022-12-06T10:56:39.146Z,21.92
2022-12-06T10:59:21.776Z,25.88
2022-12-06T11:01:51.022Z,22.88
2022-12-06T11:04:26.374Z,16.50
2022-12-06T11:06:57.343Z,16.30
2022-12-06T11:09:44.460Z,17.70
2022-12-06T11:12:36.526Z,18.02
2022-12-06T11:15:25.878Z,22.90
2022-12-06T11:18:02.492Z,21.52
2022-12-06T11:20:38.838Z,15.90
2022-12-06T11:23:14.673Z,17.90
2022-12-06T11:25:50.461Z,15.82
2022-12-06T11:28:39.004Z,21.45
2022-12-06T11:31:16.598Z,20.25
2022-12-06T11:33:43.687Z,20.23
2022-12-06T11:36:10.533Z,18.15
2022-12-06T11:38:41.395Z,14.90
2022-12-06T11:41:11.152Z,24.80
2022-12-06T11:43:39.170Z,18.33
2022-12-06T11:46:08.233Z,14.85
2022-12-06T11:48:36.377Z,18.83
2022-12-06T11:51:03.279Z,18.75
2022-12-06T11:53:42.021Z,16.58
2022-12-06T11:56:30.374Z,14.80
2022-12-06T11:59:07.181Z,15.23
2022-12-06T12:01:42.616Z,17.50
2022-12-06T12:04:28.290Z,18.10
2022-12-06T12:07:17.924Z,22.02
2022-12-06T12:09:56.795Z,17.35
2022-12-06T12:12:54.813Z,16.73
2022-12-06T12:15:22.850Z,16.55
2022-12-06T12:17:53.199Z,17.05
2022-12-06T12:20:26.662Z,19.55
2022-12-06T12:23:18.320Z,17.55
2022-12-06T12:26:00.285Z,16.85
2022-12-06T12:28:30.483Z,20.02
2022-12-06T12:31:00.233Z,19.75
2022-12-06T12:33:28.365Z,24.38
2022-12-06T12:36:17.035Z,27.25
2022-12-06T12:38:56.750Z,14.68
2022-12-06T12:41:26.334Z,18.95
2022-12-06T12:44:28.828Z,19.45
2022-12-06T12:47:18.051Z,20.38
2022-12-06T12:50:03.175Z,23.65
2022-12-06T12:52:36.438Z,25.08
2022-12-06T12:55:20.889Z,18.70
2022-12-06T12:57:50.642Z,21.48
2022-12-06T13:00:38.405Z,19.25
2022-12-06T13:03:35.058Z,16.83
2022-12-06T13:06:01.610Z,20.27
2022-12-06T13:08:38.704Z,23.38
2022-12-06T13:11:05.596Z,16.48
2022-12-06T13:13:49.485Z,22.00
2022-12-06T13:16:24.205Z,18.30
2022-12-06T13:18:55.377Z,24.38
2022-12-06T13:21:32.149Z,18.70
2022-12-06T13:24:20.600Z,22.90
2022-12-06T13:26:58.429Z,25.95
2022-12-06T13:29:30.129Z,21.75
2022-12-06T13:31:59.411Z,18.17
2022-12-06T13:34:37.857Z,21.15
2022-12-06T13:37:35.797Z,21.83
2022-12-06T13:40:05.029Z,26.27
2022-12-06T13:42:37.909Z,17.58
2022-12-06T13:45:36.068Z,25.20
2022-12-06T13:48:02.818Z,23.45
2022-12-06T13:50:32.814Z,27.25
2022-12-06T13:53:03.241Z,25.10
2022-12-06T13:55:29.756Z,18.15
2022-12-06T13:57:56.427Z,20.45
2022-12-06T14:00:32.657Z,37.85
2022-12-06T14:03:02.725Z,26.85
2022-12-06T14:06:07.448Z,16.83
2022-12-06T14:08:59.564Z,18.38
2022-12-06T14:11:29.403Z,19.67
2022-12-06T14:13:56.011Z,32.75
2022-12-06T14:16:40.321Z,35.00
2022-12-06T14:19:21.125Z,28.30
2022-12-06T14:22:28.236Z,27.63
2022-12-06T14:24:58.766Z,24.52
2022-12-06T14:27:27.413Z,30.30
2022-12-06T14:30:06.451Z,33.85
2022-12-06T14:32:38.317Z,27.35
2022-12-06T14:35:11.500Z,31.05
2022-12-06T14:37:38.500Z,28.60
2022-12-06T14:40:45.107Z,37.33
2022-12-06T14:43:17.024Z,30.83
2022-12-06T14:45:44.864Z,27.90
2022-12-06T14:48:13.069Z,29.58
2022-12-06T14:51:05.946Z,33.28
2022-12-06T14:53:33.595Z,32.53
2022-12-06T14:56:06.358Z,36.55
2022-12-06T14:58:36.051Z,45.92
2022-12-06T15:01:15.036Z,36.97
2022-12-06T15:03:41.887Z,43.58
2022-12-06T15:06:30.203Z,29.27
2022-12-06T15:08:56.830Z,34.88
2022-12-06T15:11:48.691Z,31.40
2022-12-06T15:14:17.952Z,32.70
2022-12-06T15:16:56.084Z,32.58
2022-12-06T15:19:23.008Z,27.40
2022-12-06T15:21:53.426Z,33.97
2022-12-06T15:24:23.314Z,34.75
2022-12-06T15:26:50.979Z,29.63
2022-12-06T15:29:18.562Z,40.90
2022-12-06T15:31:49.752Z,34.88
2022-12-06T15:34:25.917Z,40.65
2022-12-06T15:37:15.288Z,41.83
2022-12-06T15:39:40.145Z,39.40
2022-12-06T15:42:23.837Z,38.30
2022-12-06T15:44:51.534Z,38.67
2022-12-06T15:47:19.883Z,40.38
2022-12-06T15:49:47.619Z,37.55
2022-12-06T15:52:23.022Z,45.70
2022-12-06T15:54:50.108Z,43.05
2022-12-06T15:57:16.925Z,45.38
2022-12-06T15:59:43.527Z,42.00
2022-12-06T16:02:18.363Z,36.72
2022-12-06T16:04:48.509Z,42.78
2022-12-06T16:07:19.311Z,52.75
2022-12-06T16:09:46.829Z,42.92
2022-12-06T16:12:13.507Z,44.92
2022-12-06T16:14:40.127Z,49.65
2022-12-06T16:17:06.908Z,45.92
2022-12-06T16:19:52.183Z,39.28
2022-12-06T16:22:18.808Z,42.00
2022-12-06T16:24:50.854Z,41.10
2022-12-06T16:27:20.722Z,51.47
2022-12-06T16:29:47.424Z,62.47
2022-12-06T16:32:14.063Z,56.40
2022-12-06T16:34:40.627Z,40.38
2022-12-06T16:37:07.329Z,43.60
2022-12-06T16:39:35.004Z,41.63
2022-12-06T16:42:03.371Z,41.88
2022-12-06T16:44:30.030Z,49.47
2022-12-06T16:46:56.968Z,57.08
2022-12-06T16:52:13.790Z,52.75
2022-12-06T16:54:41.788Z,51.85
2022-12-06T16:57:11.369Z,44.25
2022-12-06T16:59:38.158Z,43.50
2022-12-06T17:02:16.196Z,43.60
2022-12-06T17:04:43.125Z,45.58
2022-12-06T17:07:09.854Z,52.83
2022-12-06T17:09:36.539Z,42.55
2022-12-06T17:12:03.105Z,56.42
2022-12-06T17:14:30.435Z,45.78
2022-12-06T17:16:59.383Z,42.97
2022-12-06T17:19:28.388Z,40.00
2022-12-06T17:21:55.840Z,39.55
2022-12-06T17:24:25.237Z,48.08
2022-12-06T17:26:54.195Z,41.10
2022-12-06T17:29:21.072Z,47.50
2022-12-06T17:31:47.815Z,47.55
2022-12-06T17:34:15.864Z,51.05
2022-12-06T17:36:43.393Z,47.95
2022-12-06T17:39:13.469Z,39.92
2022-12-06T17:41:58.589Z,41.13
2022-12-06T17:44:25.138Z,46.72
2022-12-06T17:46:52.073Z,36.03
2022-12-06T17:49:24.155Z,41.20
2022-12-06T17:51:51.258Z,33.22
2022-12-06T17:54:22.188Z,46.05
2022-12-06T17:56:50.754Z,39.50
2022-12-06T17:59:27.098Z,50.63
2022-12-06T18:02:14.687Z,42.78
2022-12-06T18:04:44.264Z,43.35
2022-12-06T18:07:12.810Z,42.10
2022-12-06T18:09:39.601Z,38.67
2022-12-06T18:12:09.283Z,43.25
2022-12-06T18:14:36.394Z,51.13
2022-12-06T18:17:03.455Z,45.08
2022-12-06T18:19:31.126Z,42.63
2022-12-06T18:21:57.844Z,51.58
2022-12-06T18:24:29.277Z,43.58
2022-12-06T18:27:00.073Z,45.38
2022-12-06T18:29:26.717Z,48.42
2022-12-06T18:31:53.538Z,47.67
2022-12-06T18:34:20.487Z,53.83
2022-12-06T18:36:47.463Z,49.72
2022-12-06T18:39:17.060Z,49.58
2022-12-06T18:41:44.912Z,49.17
2022-12-06T18:44:12.666Z,58.05
2022-12-06T18:46:41.561Z,43.05
2022-12-06T18:49:10.503Z,45.17
2022-12-06T18:51:38.788Z,54.17
2022-12-06T18:54:06.880Z,46.40
2022-12-06T18:56:35.108Z,49.17
2022-12-06T18:59:05.687Z,59.45
2022-12-06T19:01:34.751Z,57.60
2022-12-06T19:04:05.376Z,72.32
2022-12-06T19:06:34.944Z,60.58
2022-12-06T19:09:10.586Z,66.55
2022-12-06T19:11:39.265Z,53.22
2022-12-06T19:14:06.511Z,47.80
2022-12-06T19:16:34.820Z,53.15
2022-12-06T19:19:03.277Z,64.28
2022-12-06T19:21:33.043Z,59.38
2022-12-06T19:24:00.399Z,55.92
2022-12-06T19:26:28.538Z,50.45
2022-12-06T19:28:55.381Z,46.92
2022-12-06T19:31:23.251Z,56.83
2022-12-06T19:33:51.035Z,49.97
2022-12-06T19:36:24.531Z,55.58
2022-12-06T19:38:59.582Z,50.92
2022-12-06T19:41:26.982Z,50.53
2022-12-06T19:44:12.195Z,74.93
2022-12-06T19:46:43.085Z,58.90
2022-12-06T19:49:10.417Z,64.53
2022-12-06T19:51:39.706Z,67.20
2022-12-06T19:54:07.837Z,67.18
2022-12-06T19:56:35.195Z,66.82
2022-12-06T19:59:11.272Z,66.53
2022-12-06T20:01:45.239Z,71.18
2022-12-06T20:04:17.518Z,67.35
2022-12-06T20:06:44.529Z,65.25
2022-12-06T20:09:12.284Z,64.07
2022-12-06T20:11:59.505Z,68.85
2022-12-06T20:14:26.773Z,71.00
2022-12-06T20:16:54.132Z,70.00
2022-12-06T20:19:21.813Z,66.05
2022-12-06T20:21:49.070Z,65.72
2022-12-06T20:24:19.229Z,72.70
2022-12-06T20:26:49.375Z,68.18
2022-12-06T20:29:20.360Z,76.55
2022-12-06T20:31:50.324Z,77.30
2022-12-06T20:34:17.650Z,71.90
2022-12-06T20:36:44.707Z,69.25
2022-12-06T20:39:21.081Z,73.97
2022-12-06T20:41:49.064Z,75.93
2022-12-06T20:44:17.286Z,75.75
2022-12-06T20:46:44.435Z,72.45
2022-12-06T20:49:11.213Z,74.00
2022-12-06T20:51:38.033Z,81.85
2022-12-06T20:54:09.128Z,69.40
2022-12-06T20:56:39.281Z,59.03
2022-12-06T20:59:07.302Z,71.70
2022-12-06T21:01:40.711Z,59.72
2022-12-06T21:04:08.966Z,57.13
2022-12-06T21:06:35.835Z,62.20
2022-12-06T21:09:02.701Z,38.95
2022-12-06T21:11:29.367Z,49.03
2022-12-06T21:13:57.545Z,47.88
2022-12-06T21:16:30.903Z,32.30
2022-12-06T21:19:04.996Z,40.97
2022-12-06T21:21:34.859Z,36.10
2022-12-06T21:24:03.198Z,36.78
2022-12-06T21:26:31.210Z,45.60
2022-12-06T21:28:58.619Z,38.13
2022-12-06T21:31:30.947Z,46.88
2022-12-06T21:33:57.934Z,41.45
2022-12-06T21:36:25.735Z,42.28
2022-12-06T21:38:55.927Z,46.55
2022-12-06T21:41:23.164Z,42.30
2022-12-06T21:43:50.475Z,50.30
2022-12-06T21:46:21.891Z,41.30
2022-12-06T21:48:56.272Z,48.23
2022-12-06T21:51:25.468Z,43.47
2022-12-06T21:53:52.572Z,40.20
2022-12-06T21:56:22.297Z,39.00
2022-12-06T21:58:49.879Z,37.70
2022-12-06T22:01:19.704Z,40.70
2022-12-06T22:03:54.835Z,41.88
2022-12-06T22:06:22.314Z,45.22
2022-12-06T22:08:54.954Z,35.10
2022-12-06T22:11:21.655Z,40.40
2022-12-06T22:13:48.466Z,38.92
2022-12-06T22:16:16.005Z,36.15
2022-12-06T22:18:45.913Z,45.15
2022-12-06T22:21:21.751Z,48.00
2022-12-06T22:23:48.920Z,49.78
2022-12-06T22:26:18.546Z,40.90
2022-12-06T22:28:45.769Z,46.25
2022-12-06T22:31:18.236Z,47.15
2022-12-06T22:33:46.268Z,49.53
2022-12-06T22:36:14.275Z,47.22
2022-12-06T22:38:40.876Z,54.95
2022-12-06T22:41:08.187Z,50.85
2022-12-06T22:43:35.218Z,50.70
2022-12-06T22:46:10.757Z,52.33
2022-12-06T22:48:39.162Z,55.45
2022-12-06T22:51:21.106Z,54.92
2022-12-06T22:54:11.748Z,47.28
2022-12-06T22:56:40.396Z,46.63
2022-12-06T22:59:07.539Z,53.80
2022-12-06T23:01:35.639Z,58.63
2022-12-06T23:04:05.765Z,50.75
2022-12-06T23:06:33.637Z,48.08
2022-12-06T23:09:00.490Z,58.58
2022-12-06T23:11:30.735Z,53.88
2022-12-06T23:13:58.645Z,62.40
2022-12-06T23:16:28.254Z,61.97
2022-12-06T23:18:55.119Z,55.53
2022-12-06T23:21:27.733Z,50.70
2022-12-06T23:24:16.591Z,52.55
2022-12-06T23:26:51.819Z,45.35
2022-12-06T23:29:21.450Z,47.63
2022-12-06T23:31:49.085Z,38.47
2022-12-06T23:34:20.515Z,47.55
2022-12-06T23:36:47.547Z,44.83
2022-12-06T23:39:15.001Z,36.28
2022-12-06T23:41:42.068Z,40.70
2022-12-06T23:44:10.955Z,42.90
2022-12-06T23:46:38.976Z,42.72
2022-12-06T23:49:07.431Z,41.13
2022-12-06T23:51:38.086Z,44.40
2022-12-06T23:54:06.942Z,46.17
2022-12-06T23:56:36.553Z,41.03
2022-12-06T23:59:05.128Z,48.00
